TUI213 LTAI-EDDL
Flight info
| Callsign | TUI213 |
|---|---|
| Flight time | N/A |
| Altitude | 34000 |
| Route | EKNUD1K/18L EKNUD UQ26 DIGBO UL615 VADEN DCT UTEKA/N0458F360 DCT BABIT DCT SASAL DCT LAMSI DCT TESDU DCT AMETU T852 TINSA T854 DOMUX DOMUX1A/05R |
| Aircraft | B738/M-SDE2E3FGHIRWXY/LB1 |
Departure
| Time | N/A |
|---|---|
| Airport | Antalya International Airport (LTAI) |
Arrival
| Time | 2026-05-06 19:25 |
|---|---|
| Airport | Düsseldorf Airport (EDDL) |
| Time | Latitude | Longitude | Altitude | Speed | Heading |
|---|---|---|---|---|---|
| 2026-05-06 19:25 | 51.29344 | 6.78427 | 145 ft | 0 kts | 215° |
| 2026-05-06 19:26 | 51.29336 | 6.78418 | 145 ft | 3 kts | 216° |
| 2026-05-06 19:27 | 51.29296 | 6.78375 | 143 ft | 12 kts | 214° |
| 2026-05-06 19:27 | 51.29209 | 6.78276 | 138 ft | 16 kts | 225° |
| 2026-05-06 19:27 | 51.29138 | 6.78140 | 134 ft | 16 kts | 234° |
| 2026-05-06 19:27 | 51.29072 | 6.78007 | 130 ft | 15 kts | 233° |
| 2026-05-06 19:28 | 51.29012 | 6.77875 | 128 ft | 14 kts | 234° |
| 2026-05-06 19:28 | 51.28972 | 6.77792 | 127 ft | 14 kts | 232° |
| 2026-05-06 19:28 | 51.28915 | 6.77671 | 127 ft | 13 kts | 233° |
| 2026-05-06 19:28 | 51.28860 | 6.77555 | 127 ft | 13 kts | 233° |
| 2026-05-06 19:29 | 51.28790 | 6.77406 | 126 ft | 12 kts | 233° |
| 2026-05-06 19:29 | 51.28752 | 6.77329 | 129 ft | 14 kts | 232° |
| 2026-05-06 19:29 | 51.28663 | 6.77144 | 129 ft | 18 kts | 232° |
| 2026-05-06 19:29 | 51.28583 | 6.76975 | 127 ft | 20 kts | 233° |
| 2026-05-06 19:30 | 51.28523 | 6.76846 | 127 ft | 23 kts | 233° |
| 2026-05-06 19:30 | 51.28425 | 6.76642 | 125 ft | 22 kts | 232° |
| 2026-05-06 19:30 | 51.28334 | 6.76450 | 121 ft | 21 kts | 233° |
| 2026-05-06 19:30 | 51.28245 | 6.76266 | 123 ft | 21 kts | 234° |
| 2026-05-06 19:31 | 51.28159 | 6.76087 | 126 ft | 20 kts | 232° |
| 2026-05-06 19:31 | 51.28141 | 6.76050 | 127 ft | 0 kts | 232° |
| 2026-05-06 19:31 | 51.28081 | 6.76043 | 126 ft | 8 kts | 169° |
| 2026-05-06 19:32 | 51.28029 | 6.76047 | 126 ft | 7 kts | 180° |
| 2026-05-06 19:32 | 51.27978 | 6.76047 | 126 ft | 7 kts | 178° |
| 2026-05-06 19:32 | 51.27929 | 6.76049 | 129 ft | 7 kts | 180° |
| 2026-05-06 19:32 | 51.27880 | 6.76048 | 129 ft | 7 kts | 180° |
| 2026-05-06 19:33 | 51.27826 | 6.76047 | 129 ft | 9 kts | 181° |
| 2026-05-06 19:33 | 51.27766 | 6.76044 | 127 ft | 8 kts | 181° |
| 2026-05-06 19:33 | 51.27708 | 6.76041 | 129 ft | 9 kts | 181° |
| 2026-05-06 19:33 | 51.27646 | 6.76043 | 127 ft | 9 kts | 173° |
| 2026-05-06 19:34 | 51.27589 | 6.76072 | 127 ft | 9 kts | 156° |
| 2026-05-06 19:34 | 51.27537 | 6.76117 | 129 ft | 8 kts | 137° |
| 2026-05-06 19:34 | 51.27516 | 6.76199 | 129 ft | 8 kts | 87° |
| 2026-05-06 19:34 | 51.27533 | 6.76283 | 126 ft | 8 kts | 69° |
| 2026-05-06 19:35 | 51.27553 | 6.76363 | 129 ft | 8 kts | 68° |
| 2026-05-06 19:35 | 51.27560 | 6.76393 | 128 ft | 5 kts | 68° |
| 2026-05-06 19:35 | 51.27592 | 6.76396 | 129 ft | 6 kts | 329° |
| 2026-05-06 19:35 | 51.27606 | 6.76385 | 127 ft | 0 kts | 337° |
| 2026-05-06 19:36 | 51.27611 | 6.76382 | 128 ft | 1 kts | 338° |
| 2026-05-06 19:36 | 51.27628 | 6.76372 | 126 ft | 0 kts | 339° |
| 2026-05-06 19:36 | 51.27625 | 6.76373 | 127 ft | 1 kts | 339° |
| 2026-05-06 19:36 | 51.27623 | 6.76374 | 127 ft | 4 kts | 339° |
| 2026-05-06 19:37 | 51.27618 | 6.76378 | 128 ft | 0 kts | 339° |
| 2026-05-06 19:37 | 51.27619 | 6.76377 | 128 ft | 0 kts | 339° |